sensor_id;sensor_type;location;lat;lon;timestamp;pressure;altitude;pressure_sealevel;temperature;humidity
41690;BME280;27372;42.658;23.256;2023-05-09T00:02:17;94086.41;;;12.00;94.75
41690;BME280;27372;42.658;23.256;2023-05-09T00:04:43;94090.59;;;12.01;94.48
41690;BME280;27372;42.658;23.256;2023-05-09T00:07:08;94080.94;;;12.06;95.03
41690;BME280;27372;42.658;23.256;2023-05-09T00:09:34;94075.38;;;12.03;95.02
41690;BME280;27372;42.658;23.256;2023-05-09T00:12:00;94079.03;;;12.02;94.39
41690;BME280;27372;42.658;23.256;2023-05-09T00:14:26;94086.22;;;12.06;93.82
41690;BME280;27372;42.658;23.256;2023-05-09T00:16:52;94084.25;;;12.14;93.78
41690;BME280;27372;42.658;23.256;2023-05-09T00:19:17;94080.41;;;12.21;92.09
41690;BME280;27372;42.658;23.256;2023-05-09T00:21:43;94075.88;;;12.34;91.92
41690;BME280;27372;42.658;23.256;2023-05-09T00:24:08;94075.72;;;12.40;91.73
41690;BME280;27372;42.658;23.256;2023-05-09T00:26:34;94067.97;;;12.51;91.54
41690;BME280;27372;42.658;23.256;2023-05-09T00:28:59;94078.41;;;12.63;90.89
41690;BME280;27372;42.658;23.256;2023-05-09T00:31:24;94072.19;;;12.52;90.41
41690;BME280;27372;42.658;23.256;2023-05-09T00:33:50;94067.00;;;12.57;89.67
41690;BME280;27372;42.658;23.256;2023-05-09T00:36:15;94061.00;;;12.62;89.74
41690;BME280;27372;42.658;23.256;2023-05-09T00:38:40;94069.63;;;12.57;89.87
41690;BME280;27372;42.658;23.256;2023-05-09T00:41:06;94068.22;;;12.49;90.88
41690;BME280;27372;42.658;23.256;2023-05-09T00:43:31;94066.47;;;12.38;90.85
41690;BME280;27372;42.658;23.256;2023-05-09T00:45:57;94070.19;;;12.42;90.72
41690;BME280;27372;42.658;23.256;2023-05-09T00:48:22;94075.09;;;12.50;90.73
41690;BME280;27372;42.658;23.256;2023-05-09T00:50:48;94072.44;;;12.50;90.29
41690;BME280;27372;42.658;23.256;2023-05-09T00:53:17;94070.22;;;12.25;91.75
41690;BME280;27372;42.658;23.256;2023-05-09T00:55:42;94067.81;;;12.23;92.30
41690;BME280;27372;42.658;23.256;2023-05-09T00:58:08;94075.97;;;12.39;92.19
41690;BME280;27372;42.658;23.256;2023-05-09T01:00:33;94064.63;;;12.38;92.11
41690;BME280;27372;42.658;23.256;2023-05-09T01:02:59;94069.56;;;12.18;93.71
41690;BME280;27372;42.658;23.256;2023-05-09T01:05:29;94071.00;;;12.08;93.98
41690;BME280;27372;42.658;23.256;2023-05-09T01:15:52;94045.59;;;11.56;96.75
41690;BME280;27372;42.658;23.256;2023-05-09T01:21:05;94050.69;;;11.46;98.40
41690;BME280;27372;42.658;23.256;2023-05-09T01:27:03;94049.44;;;11.37;98.71
41690;BME280;27372;42.658;23.256;2023-05-09T01:32:03;94056.66;;;11.29;99.80
41690;BME280;27372;42.658;23.256;2023-05-09T01:34:32;94055.50;;;11.37;98.96
41690;BME280;27372;42.658;23.256;2023-05-09T01:37:00;94057.41;;;11.42;98.37
41690;BME280;27372;42.658;23.256;2023-05-09T01:39:29;94050.56;;;11.41;98.77
41690;BME280;27372;42.658;23.256;2023-05-09T01:42:00;94047.59;;;11.49;97.54
41690;BME280;27372;42.658;23.256;2023-05-09T01:44:28;94050.09;;;11.44;97.66
41690;BME280;27372;42.658;23.256;2023-05-09T01:46:57;94048.31;;;11.32;98.12
41690;BME280;27372;42.658;23.256;2023-05-09T01:49:25;94056.84;;;11.40;97.71
41690;BME280;27372;42.658;23.256;2023-05-09T01:51:53;94055.81;;;11.41;98.39
41690;BME280;27372;42.658;23.256;2023-05-09T01:54:19;94058.38;;;11.36;98.34
41690;BME280;27372;42.658;23.256;2023-05-09T01:56:46;94068.19;;;11.40;97.81
41690;BME280;27372;42.658;23.256;2023-05-09T01:59:13;94054.72;;;11.37;98.65
41690;BME280;27372;42.658;23.256;2023-05-09T02:01:42;94065.81;;;11.39;98.45
41690;BME280;27372;42.658;23.256;2023-05-09T02:04:14;94058.44;;;11.41;98.14
41690;BME280;27372;42.658;23.256;2023-05-09T02:09:46;94048.88;;;11.63;96.89
41690;BME280;27372;42.658;23.256;2023-05-09T02:12:17;94052.16;;;11.71;96.14
41690;BME280;27372;42.658;23.256;2023-05-09T02:14:45;94058.50;;;11.87;96.55
41690;BME280;27372;42.658;23.256;2023-05-09T02:17:22;94066.56;;;11.97;96.16
41690;BME280;27372;42.658;23.256;2023-05-09T02:20:21;94049.03;;;12.03;95.23
41690;BME280;27372;42.658;23.256;2023-05-09T02:22:57;94057.66;;;11.98;95.10
41690;BME280;27372;42.658;23.256;2023-05-09T02:25:32;94053.41;;;11.97;95.00
41690;BME280;27372;42.658;23.256;2023-05-09T02:27:58;94061.41;;;12.02;95.14
41690;BME280;27372;42.658;23.256;2023-05-09T02:30:35;94062.81;;;11.93;94.54
41690;BME280;27372;42.658;23.256;2023-05-09T02:33:09;94047.72;;;12.17;93.69
41690;BME280;27372;42.658;23.256;2023-05-09T02:35:44;94060.56;;;12.31;93.07
41690;BME280;27372;42.658;23.256;2023-05-09T02:38:18;94051.06;;;12.30;92.84
41690;BME280;27372;42.658;23.256;2023-05-09T02:40:46;94048.44;;;12.30;91.90
41690;BME280;27372;42.658;23.256;2023-05-09T02:43:12;94050.56;;;12.33;91.98
41690;BME280;27372;42.658;23.256;2023-05-09T02:45:39;94064.47;;;12.45;92.21
41690;BME280;27372;42.658;23.256;2023-05-09T02:51:27;94053.28;;;12.38;91.36
41690;BME280;27372;42.658;23.256;2023-05-09T02:53:52;94058.09;;;12.41;91.36
41690;BME280;27372;42.658;23.256;2023-05-09T02:56:17;94060.47;;;12.60;90.13
41690;BME280;27372;42.658;23.256;2023-05-09T02:58:43;94068.69;;;12.63;90.82
41690;BME280;27372;42.658;23.256;2023-05-09T03:01:15;94068.59;;;12.58;90.36
41690;BME280;27372;42.658;23.256;2023-05-09T03:03:40;94063.16;;;12.48;91.39
41690;BME280;27372;42.658;23.256;2023-05-09T03:06:06;94073.97;;;12.46;91.53
41690;BME280;27372;42.658;23.256;2023-05-09T03:08:31;94074.06;;;12.51;90.40
41690;BME280;27372;42.658;23.256;2023-05-09T03:10:56;94074.84;;;12.52;91.51
41690;BME280;27372;42.658;23.256;2023-05-09T03:13:22;94072.03;;;12.41;90.97
41690;BME280;27372;42.658;23.256;2023-05-09T03:15:47;94068.69;;;12.46;91.39
41690;BME280;27372;42.658;23.256;2023-05-09T03:18:13;94075.72;;;12.40;92.74
41690;BME280;27372;42.658;23.256;2023-05-09T03:20:38;94077.88;;;12.26;92.88
41690;BME280;27372;42.658;23.256;2023-05-09T03:23:03;94079.69;;;12.09;94.00
41690;BME280;27372;42.658;23.256;2023-05-09T03:25:29;94086.59;;;11.98;95.83
41690;BME280;27372;42.658;23.256;2023-05-09T03:27:54;94085.34;;;12.01;95.06
41690;BME280;27372;42.658;23.256;2023-05-09T03:30:20;94090.47;;;12.24;93.93
41690;BME280;27372;42.658;23.256;2023-05-09T03:32:45;94092.38;;;12.29;94.50
41690;BME280;27372;42.658;23.256;2023-05-09T03:35:11;94093.34;;;12.23;93.54
41690;BME280;27372;42.658;23.256;2023-05-09T03:37:36;94091.59;;;12.29;93.85
41690;BME280;27372;42.658;23.256;2023-05-09T03:40:01;94101.81;;;12.25;94.80
41690;BME280;27372;42.658;23.256;2023-05-09T03:42:28;94090.16;;;12.21;95.40
41690;BME280;27372;42.658;23.256;2023-05-09T03:44:53;94090.47;;;12.24;95.67
41690;BME280;27372;42.658;23.256;2023-05-09T03:47:19;94097.81;;;12.22;95.29
41690;BME280;27372;42.658;23.256;2023-05-09T03:49:44;94094.69;;;12.25;95.96
41690;BME280;27372;42.658;23.256;2023-05-09T03:52:10;94102.78;;;12.36;95.66
41690;BME280;27372;42.658;23.256;2023-05-09T03:54:38;94093.59;;;11.92;97.67
41690;BME280;27372;42.658;23.256;2023-05-09T03:57:11;94108.66;;;12.09;96.54
41690;BME280;27372;42.658;23.256;2023-05-09T04:02:59;94113.03;;;12.03;96.85
41690;BME280;27372;42.658;23.256;2023-05-09T04:05:31;94115.59;;;11.86;98.35
41690;BME280;27372;42.658;23.256;2023-05-09T04:08:05;94103.00;;;11.88;97.33
41690;BME280;27372;42.658;23.256;2023-05-09T04:10:43;94102.44;;;11.86;99.07
41690;BME280;27372;42.658;23.256;2023-05-09T04:13:15;94103.00;;;11.88;98.85
41690;BME280;27372;42.658;23.256;2023-05-09T04:15:43;94101.41;;;11.87;99.27
41690;BME280;27372;42.658;23.256;2023-05-09T04:18:08;94103.94;;;11.82;99.83
41690;BME280;27372;42.658;23.256;2023-05-09T04:21:29;94120.94;;;11.91;99.99
41690;BME280;27372;42.658;23.256;2023-05-09T04:24:40;94110.47;;;11.79;99.91
41690;BME280;27372;42.658;23.256;2023-05-09T04:27:05;94094.16;;;11.65;100.00
41690;BME280;27372;42.658;23.256;2023-05-09T04:29:31;94099.31;;;11.60;100.00
41690;BME280;27372;42.658;23.256;2023-05-09T04:32:02;94094.06;;;11.60;99.73
41690;BME280;27372;42.658;23.256;2023-05-09T04:34:40;94091.44;;;11.60;97.49
41690;BME280;27372;42.658;23.256;2023-05-09T04:37:05;94093.59;;;11.63;97.48
41690;BME280;27372;42.658;23.256;2023-05-09T04:39:46;94113.84;;;11.92;97.18
41690;BME280;27372;42.658;23.256;2023-05-09T04:42:30;94105.03;;;11.98;96.32
41690;BME280;27372;42.658;23.256;2023-05-09T04:45:06;94113.59;;;12.22;95.19
41690;BME280;27372;42.658;23.256;2023-05-09T04:47:32;94104.19;;;12.26;94.07
41690;BME280;27372;42.658;23.256;2023-05-09T04:49:57;94114.03;;;12.48;93.50
41690;BME280;27372;42.658;23.256;2023-05-09T04:52:23;94122.25;;;12.52;93.50
41690;BME280;27372;42.658;23.256;2023-05-09T04:54:48;94116.66;;;12.65;91.98
41690;BME280;27372;42.658;23.256;2023-05-09T04:57:14;94117.22;;;12.50;91.42
41690;BME280;27372;42.658;23.256;2023-05-09T04:59:39;94110.75;;;12.58;92.35
41690;BME280;27372;42.658;23.256;2023-05-09T05:02:05;94111.06;;;12.62;92.54
41690;BME280;27372;42.658;23.256;2023-05-09T05:04:42;94118.31;;;12.88;91.25
41690;BME280;27372;42.658;23.256;2023-05-09T05:07:08;94113.56;;;13.08;90.66
41690;BME280;27372;42.658;23.256;2023-05-09T05:09:39;94109.34;;;13.07;88.19
41690;BME280;27372;42.658;23.256;2023-05-09T05:12:05;94108.09;;;13.14;86.71
41690;BME280;27372;42.658;23.256;2023-05-09T05:14:31;94108.84;;;13.10;86.36
41690;BME280;27372;42.658;23.256;2023-05-09T05:16:57;94113.38;;;13.14;87.14
41690;BME280;27372;42.658;23.256;2023-05-09T05:19:22;94105.94;;;12.89;87.50
41690;BME280;27372;42.658;23.256;2023-05-09T05:21:48;94116.63;;;12.99;87.40
41690;BME280;27372;42.658;23.256;2023-05-09T05:24:13;94118.19;;;13.17;87.11
41690;BME280;27372;42.658;23.256;2023-05-09T05:26:38;94116.59;;;13.16;87.28
41690;BME280;27372;42.658;23.256;2023-05-09T05:29:13;94121.28;;;13.54;92.23
41690;BME280;27372;42.658;23.256;2023-05-09T05:31:39;94115.16;;;13.70;92.75
41690;BME280;27372;42.658;23.256;2023-05-09T05:34:04;94107.31;;;14.03;92.95
41690;BME280;27372;42.658;23.256;2023-05-09T05:39:48;94111.38;;;14.16;86.50
41690;BME280;27372;42.658;23.256;2023-05-09T05:43:08;94123.66;;;14.59;88.34
41690;BME280;27372;42.658;23.256;2023-05-09T05:49:39;94116.00;;;15.49;85.63
41690;BME280;27372;42.658;23.256;2023-05-09T05:52:07;94133.94;;;15.36;75.13
41690;BME280;27372;42.658;23.256;2023-05-09T05:54:35;94122.00;;;15.87;78.71
41690;BME280;27372;42.658;23.256;2023-05-09T05:57:44;94118.84;;;16.01;76.67
41690;BME280;27372;42.658;23.256;2023-05-09T06:00:26;94134.19;;;15.98;79.75
41690;BME280;27372;42.658;23.256;2023-05-09T06:06:26;94134.06;;;15.67;80.83
41690;BME280;27372;42.658;23.256;2023-05-09T06:19:12;94138.47;;;15.41;76.59
41690;BME280;27372;42.658;23.256;2023-05-09T06:21:38;94122.69;;;15.09;76.77
41690;BME280;27372;42.658;23.256;2023-05-09T06:49:43;94124.66;;;14.21;78.70
41690;BME280;27372;42.658;23.256;2023-05-09T06:52:14;94129.44;;;14.24;78.69
41690;BME280;27372;42.658;23.256;2023-05-09T06:54:40;94132.28;;;14.50;82.26
41690;BME280;27372;42.658;23.256;2023-05-09T06:57:12;94126.06;;;14.66;80.86
41690;BME280;27372;42.658;23.256;2023-05-09T06:59:55;94114.25;;;14.69;79.53
41690;BME280;27372;42.658;23.256;2023-05-09T07:02:21;94118.59;;;14.90;83.67
41690;BME280;27372;42.658;23.256;2023-05-09T07:04:46;94117.59;;;14.32;75.13
41690;BME280;27372;42.658;23.256;2023-05-09T07:07:34;94120.28;;;14.37;77.05
41690;BME280;27372;42.658;23.256;2023-05-09T07:10:12;94127.13;;;14.33;77.08
41690;BME280;27372;42.658;23.256;2023-05-09T07:12:40;94131.72;;;14.15;77.22
41690;BME280;27372;42.658;23.256;2023-05-09T07:17:58;94127.38;;;14.64;77.80
41690;BME280;27372;42.658;23.256;2023-05-09T07:20:23;94128.59;;;14.51;75.78
41690;BME280;27372;42.658;23.256;2023-05-09T07:22:49;94118.72;;;15.06;85.34
41690;BME280;27372;42.658;23.256;2023-05-09T07:25:15;94129.72;;;14.27;75.44
41690;BME280;27372;42.658;23.256;2023-05-09T07:27:40;94136.59;;;14.28;78.58
41690;BME280;27372;42.658;23.256;2023-05-09T07:30:06;94131.72;;;14.48;80.32
41690;BME280;27372;42.658;23.256;2023-05-09T07:32:33;94131.53;;;14.22;76.56
41690;BME280;27372;42.658;23.256;2023-05-09T07:34:59;94129.69;;;14.55;81.69
41690;BME280;27372;42.658;23.256;2023-05-09T07:37:25;94123.44;;;14.34;81.04
41690;BME280;27372;42.658;23.256;2023-05-09T07:39:51;94146.88;;;13.97;78.20
41690;BME280;27372;42.658;23.256;2023-05-09T07:42:16;94135.50;;;13.97;77.93
41690;BME280;27372;42.658;23.256;2023-05-09T07:44:42;94133.50;;;14.09;80.62
41690;BME280;27372;42.658;23.256;2023-05-09T07:47:07;94135.47;;;14.52;81.96
41690;BME280;27372;42.658;23.256;2023-05-09T07:49:33;94134.19;;;14.54;81.62
41690;BME280;27372;42.658;23.256;2023-05-09T07:51:59;94136.91;;;14.65;78.56
41690;BME280;27372;42.658;23.256;2023-05-09T07:54:24;94132.50;;;14.75;77.57
41690;BME280;27372;42.658;23.256;2023-05-09T07:56:50;94136.25;;;15.22;79.33
41690;BME280;27372;42.658;23.256;2023-05-09T07:59:15;94125.03;;;15.05;74.37
41690;BME280;27372;42.658;23.256;2023-05-09T08:01:41;94124.53;;;15.08;73.24
41690;BME280;27372;42.658;23.256;2023-05-09T08:04:06;94111.56;;;15.60;80.69
41690;BME280;27372;42.658;23.256;2023-05-09T08:06:33;94119.78;;;15.68;73.22
41690;BME280;27372;42.658;23.256;2023-05-09T08:08:59;94123.69;;;15.50;70.76
41690;BME280;27372;42.658;23.256;2023-05-09T08:11:24;94123.50;;;15.78;73.53
41690;BME280;27372;42.658;23.256;2023-05-09T08:13:50;94132.16;;;16.16;78.90
41690;BME280;27372;42.658;23.256;2023-05-09T08:16:16;94133.78;;;15.64;69.35
41690;BME280;27372;42.658;23.256;2023-05-09T08:18:42;94127.06;;;16.04;80.26
41690;BME280;27372;42.658;23.256;2023-05-09T08:21:08;94125.22;;;16.10;70.76
41690;BME280;27372;42.658;23.256;2023-05-09T08:23:33;94125.28;;;16.41;76.46
41690;BME280;27372;42.658;23.256;2023-05-09T08:25:59;94130.78;;;16.08;66.52
41690;BME280;27372;42.658;23.256;2023-05-09T08:28:25;94127.69;;;15.53;67.90
41690;BME280;27372;42.658;23.256;2023-05-09T08:30:53;94122.22;;;15.80;70.70
41690;BME280;27372;42.658;23.256;2023-05-09T08:33:19;94125.19;;;15.94;69.04
41690;BME280;27372;42.658;23.256;2023-05-09T08:35:48;94127.38;;;16.34;74.61
41690;BME280;27372;42.658;23.256;2023-05-09T08:38:14;94113.09;;;16.50;76.82
41690;BME280;27372;42.658;23.256;2023-05-09T08:40:40;94126.88;;;16.73;72.53
41690;BME280;27372;42.658;23.256;2023-05-09T08:43:06;94120.50;;;16.58;73.25
41690;BME280;27372;42.658;23.256;2023-05-09T08:45:34;94119.44;;;16.44;69.10
41690;BME280;27372;42.658;23.256;2023-05-09T08:48:02;94123.69;;;16.55;68.34
41690;BME280;27372;42.658;23.256;2023-05-09T08:50:28;94119.06;;;17.54;73.88
41690;BME280;27372;42.658;23.256;2023-05-09T08:52:53;94120.53;;;17.81;65.87
41690;BME280;27372;42.658;23.256;2023-05-09T08:55:19;94111.06;;;18.89;72.74
41690;BME280;27372;42.658;23.256;2023-05-09T08:57:45;94114.19;;;18.27;58.26
41690;BME280;27372;42.658;23.256;2023-05-09T09:00:12;94104.31;;;17.88;59.43
41690;BME280;27372;42.658;23.256;2023-05-09T09:02:41;94117.00;;;17.25;64.26
41690;BME280;27372;42.658;23.256;2023-05-09T09:05:07;94115.22;;;17.81;71.63
41690;BME280;27372;42.658;23.256;2023-05-09T09:07:35;94108.31;;;16.99;64.42
41690;BME280;27372;42.658;23.256;2023-05-09T09:10:02;94118.66;;;16.64;68.00
41690;BME280;27372;42.658;23.256;2023-05-09T09:12:28;94117.31;;;16.15;67.30
41690;BME280;27372;42.658;23.256;2023-05-09T09:14:55;94114.94;;;16.39;71.93
41690;BME280;27372;42.658;23.256;2023-05-09T09:17:24;94109.38;;;16.98;70.08
41690;BME280;27372;42.658;23.256;2023-05-09T09:19:55;94123.91;;;17.31;66.93
41690;BME280;27372;42.658;23.256;2023-05-09T09:22:23;94118.56;;;17.42;68.09
41690;BME280;27372;42.658;23.256;2023-05-09T09:24:49;94128.94;;;17.33;66.43
41690;BME280;27372;42.658;23.256;2023-05-09T09:27:15;94113.25;;;17.42;72.91
41690;BME280;27372;42.658;23.256;2023-05-09T09:29:41;94119.66;;;17.30;69.35
41690;BME280;27372;42.658;23.256;2023-05-09T09:32:06;94124.22;;;17.19;65.74
41690;BME280;27372;42.658;23.256;2023-05-09T09:34:32;94120.50;;;16.79;62.50
41690;BME280;27372;42.658;23.256;2023-05-09T09:36:58;94128.13;;;16.13;65.07
41690;BME280;27372;42.658;23.256;2023-05-09T09:39:23;94121.19;;;15.87;65.37
41690;BME280;27372;42.658;23.256;2023-05-09T09:41:49;94130.06;;;15.55;67.92
41690;BME280;27372;42.658;23.256;2023-05-09T09:44:19;94133.38;;;15.29;69.22
41690;BME280;27372;42.658;23.256;2023-05-09T09:49:15;94120.19;;;14.91;70.93
41690;BME280;27372;42.658;23.256;2023-05-09T09:51:42;94130.13;;;15.17;70.22
41690;BME280;27372;42.658;23.256;2023-05-09T09:54:10;94136.56;;;15.31;70.37
41690;BME280;27372;42.658;23.256;2023-05-09T09:56:45;94126.97;;;15.20;70.73
41690;BME280;27372;42.658;23.256;2023-05-09T09:59:13;94129.94;;;15.29;70.16
41690;BME280;27372;42.658;23.256;2023-05-09T10:02:05;94134.91;;;15.15;71.88
41690;BME280;27372;42.658;23.256;2023-05-09T10:04:37;94120.03;;;15.09;71.41
41690;BME280;27372;42.658;23.256;2023-05-09T10:07:05;94121.75;;;14.87;70.77
41690;BME280;27372;42.658;23.256;2023-05-09T10:09:32;94122.28;;;14.57;71.69
41690;BME280;27372;42.658;23.256;2023-05-09T10:12:03;94114.34;;;14.52;72.16
41690;BME280;27372;42.658;23.256;2023-05-09T10:14:30;94121.44;;;14.79;72.19
41690;BME280;27372;42.658;23.256;2023-05-09T10:16:56;94121.22;;;14.85;71.41
41690;BME280;27372;42.658;23.256;2023-05-09T10:19:24;94112.47;;;14.47;72.21
41690;BME280;27372;42.658;23.256;2023-05-09T10:21:55;94121.13;;;14.70;72.52
41690;BME280;27372;42.658;23.256;2023-05-09T10:26:59;94121.41;;;14.73;71.01
41690;BME280;27372;42.658;23.256;2023-05-09T10:29:28;94104.44;;;14.69;72.08
41690;BME280;27372;42.658;23.256;2023-05-09T10:31:58;94104.56;;;14.52;72.80
41690;BME280;27372;42.658;23.256;2023-05-09T10:34:25;94101.06;;;14.47;73.43
41690;BME280;27372;42.658;23.256;2023-05-09T10:36:52;94099.28;;;14.52;74.46
41690;BME280;27372;42.658;23.256;2023-05-09T10:39:18;94091.09;;;14.21;75.98
41690;BME280;27372;42.658;23.256;2023-05-09T10:41:45;94095.41;;;14.33;75.83
41690;BME280;27372;42.658;23.256;2023-05-09T10:44:14;94092.91;;;14.48;76.34
41690;BME280;27372;42.658;23.256;2023-05-09T10:46:42;94094.63;;;14.65;76.03
41690;BME280;27372;42.658;23.256;2023-05-09T10:49:11;94085.81;;;14.54;75.71
41690;BME280;27372;42.658;23.256;2023-05-09T10:51:41;94091.63;;;14.88;74.91
41690;BME280;27372;42.658;23.256;2023-05-09T10:54:14;94087.03;;;15.21;72.84
41690;BME280;27372;42.658;23.256;2023-05-09T10:56:45;94078.91;;;15.33;71.31
41690;BME280;27372;42.658;23.256;2023-05-09T11:02:35;94081.81;;;16.37;67.61
41690;BME280;27372;42.658;23.256;2023-05-09T11:05:12;94083.25;;;17.41;63.78
41690;BME280;27372;42.658;23.256;2023-05-09T11:07:38;94095.66;;;17.61;62.43
41690;BME280;27372;42.658;23.256;2023-05-09T11:10:41;94090.28;;;18.22;61.27
41690;BME280;27372;42.658;23.256;2023-05-09T11:13:12;94077.22;;;18.30;57.85
41690;BME280;27372;42.658;23.256;2023-05-09T11:16:03;94083.84;;;18.33;57.80
41690;BME280;27372;42.658;23.256;2023-05-09T11:18:30;94084.25;;;18.16;57.43
41690;BME280;27372;42.658;23.256;2023-05-09T11:20:57;94089.47;;;17.76;58.17
41690;BME280;27372;42.658;23.256;2023-05-09T11:23:28;94099.56;;;17.74;61.17
41690;BME280;27372;42.658;23.256;2023-05-09T11:26:03;94094.97;;;17.90;61.20
41690;BME280;27372;42.658;23.256;2023-05-09T11:28:31;94097.28;;;17.47;61.34
41690;BME280;27372;42.658;23.256;2023-05-09T11:31:16;94090.53;;;16.94;62.85
41690;BME280;27372;42.658;23.256;2023-05-09T11:33:44;94097.19;;;17.73;61.95
41690;BME280;27372;42.658;23.256;2023-05-09T11:38:42;94089.66;;;18.00;59.51
41690;BME280;27372;42.658;23.256;2023-05-09T11:41:08;94086.28;;;17.74;59.67
41690;BME280;27372;42.658;23.256;2023-05-09T11:43:37;94089.50;;;17.71;60.51
41690;BME280;27372;42.658;23.256;2023-05-09T11:46:18;94076.47;;;18.25;58.67
41690;BME280;27372;42.658;23.256;2023-05-09T11:48:48;94082.22;;;17.92;58.73
41690;BME280;27372;42.658;23.256;2023-05-09T11:51:19;94094.47;;;17.28;60.33
41690;BME280;27372;42.658;23.256;2023-05-09T11:53:53;94093.44;;;16.92;62.37
41690;BME280;27372;42.658;23.256;2023-05-09T11:56:30;94083.13;;;16.44;64.09
41690;BME280;27372;42.658;23.256;2023-05-09T11:59:02;94084.19;;;16.12;65.00
41690;BME280;27372;42.658;23.256;2023-05-09T12:01:28;94079.19;;;15.42;68.03
41690;BME280;27372;42.658;23.256;2023-05-09T12:03:54;94084.16;;;15.28;69.64
41690;BME280;27372;42.658;23.256;2023-05-09T12:06:21;94074.56;;;15.12;70.30
41690;BME280;27372;42.658;23.256;2023-05-09T12:08:47;94088.00;;;15.05;70.42
41690;BME280;27372;42.658;23.256;2023-05-09T12:11:13;94085.28;;;14.89;71.70
41690;BME280;27372;42.658;23.256;2023-05-09T12:13:46;94096.69;;;14.95;70.71
41690;BME280;27372;42.658;23.256;2023-05-09T12:16:11;94092.28;;;14.68;71.26
41690;BME280;27372;42.658;23.256;2023-05-09T12:19:09;94091.72;;;14.34;72.78
41690;BME280;27372;42.658;23.256;2023-05-09T12:21:40;94089.34;;;14.32;73.29
41690;BME280;27372;42.658;23.256;2023-05-09T12:24:09;94080.78;;;14.20;73.85
41690;BME280;27372;42.658;23.256;2023-05-09T12:26:41;94079.19;;;14.19;73.54
41690;BME280;27372;42.658;23.256;2023-05-09T12:29:09;94088.53;;;13.99;75.09
41690;BME280;27372;42.658;23.256;2023-05-09T12:34:23;94074.50;;;14.26;74.66
41690;BME280;27372;42.658;23.256;2023-05-09T12:36:51;94081.63;;;14.25;74.32
41690;BME280;27372;42.658;23.256;2023-05-09T12:39:18;94070.59;;;14.01;75.38
41690;BME280;27372;42.658;23.256;2023-05-09T12:41:52;94076.81;;;14.17;74.98
41690;BME280;27372;42.658;23.256;2023-05-09T12:44:43;94066.84;;;13.97;75.46
41690;BME280;27372;42.658;23.256;2023-05-09T12:47:18;94060.13;;;14.11;74.23
41690;BME280;27372;42.658;23.256;2023-05-09T12:49:49;94067.66;;;13.97;75.22
41690;BME280;27372;42.658;23.256;2023-05-09T12:52:19;94063.16;;;13.98;75.93
41690;BME280;27372;42.658;23.256;2023-05-09T12:54:47;94058.38;;;13.95;76.16
41690;BME280;27372;42.658;23.256;2023-05-09T12:57:39;94052.75;;;13.86;76.77
41690;BME280;27372;42.658;23.256;2023-05-09T13:00:09;94050.22;;;13.69;78.46
41690;BME280;27372;42.658;23.256;2023-05-09T13:02:37;94060.38;;;13.55;78.48
41690;BME280;27372;42.658;23.256;2023-05-09T13:05:19;94053.94;;;13.46;79.53
41690;BME280;27372;42.658;23.256;2023-05-09T13:08:01;94048.72;;;13.51;79.82
41690;BME280;27372;42.658;23.256;2023-05-09T13:10:35;94041.09;;;13.55;79.08
41690;BME280;27372;42.658;23.256;2023-05-09T13:13:04;94032.53;;;13.70;78.01
41690;BME280;27372;42.658;23.256;2023-05-09T13:15:39;94045.44;;;13.93;77.87
41690;BME280;27372;42.658;23.256;2023-05-09T13:18:40;94031.19;;;13.67;78.66
41690;BME280;27372;42.658;23.256;2023-05-09T13:21:17;94026.75;;;14.00;77.79
41690;BME280;27372;42.658;23.256;2023-05-09T13:23:46;94029.66;;;13.71;77.72
41690;BME280;27372;42.658;23.256;2023-05-09T13:26:14;94013.91;;;13.54;79.07
41690;BME280;27372;42.658;23.256;2023-05-09T13:28:51;94014.81;;;13.65;78.04
41690;BME280;27372;42.658;23.256;2023-05-09T13:31:19;94029.25;;;13.35;78.39
41690;BME280;27372;42.658;23.256;2023-05-09T13:33:51;94015.84;;;13.64;78.47
41690;BME280;27372;42.658;23.256;2023-05-09T13:36:16;94031.56;;;14.08;77.36
41690;BME280;27372;42.658;23.256;2023-05-09T13:38:44;94022.97;;;13.91;76.12
41690;BME280;27372;42.658;23.256;2023-05-09T13:41:15;94032.97;;;13.89;76.14
41690;BME280;27372;42.658;23.256;2023-05-09T13:43:48;94033.44;;;14.08;75.55
41690;BME280;27372;42.658;23.256;2023-05-09T13:46:20;94021.53;;;13.78;74.54
41690;BME280;27372;42.658;23.256;2023-05-09T13:48:51;94026.88;;;14.16;75.68
41690;BME280;27372;42.658;23.256;2023-05-09T13:51:19;94027.31;;;14.02;75.73
41690;BME280;27372;42.658;23.256;2023-05-09T13:54:03;94036.72;;;14.25;75.58
41690;BME280;27372;42.658;23.256;2023-05-09T13:56:48;94026.19;;;14.31;74.89
41690;BME280;27372;42.658;23.256;2023-05-09T13:59:13;94033.75;;;14.17;75.63
41690;BME280;27372;42.658;23.256;2023-05-09T14:01:48;94036.03;;;13.75;74.49
41690;BME280;27372;42.658;23.256;2023-05-09T14:04:27;94027.22;;;13.64;74.73
41690;BME280;27372;42.658;23.256;2023-05-09T14:06:54;94032.25;;;13.66;75.92
41690;BME280;27372;42.658;23.256;2023-05-09T14:09:35;94025.22;;;13.49;78.07
41690;BME280;27372;42.658;23.256;2023-05-09T14:12:04;94040.34;;;13.59;77.80
41690;BME280;27372;42.658;23.256;2023-05-09T14:14:38;94011.53;;;13.53;77.26
41690;BME280;27372;42.658;23.256;2023-05-09T14:17:15;94027.16;;;13.59;77.58
41690;BME280;27372;42.658;23.256;2023-05-09T14:19:50;94032.56;;;13.47;77.58
41690;BME280;27372;42.658;23.256;2023-05-09T14:22:21;94029.09;;;13.42;76.82
41690;BME280;27372;42.658;23.256;2023-05-09T14:24:52;94045.72;;;13.42;76.19
41690;BME280;27372;42.658;23.256;2023-05-09T14:27:18;94036.38;;;13.34;77.47
41690;BME280;27372;42.658;23.256;2023-05-09T14:29:43;94033.03;;;13.39;76.77
41690;BME280;27372;42.658;23.256;2023-05-09T14:32:30;94027.41;;;13.35;77.26
41690;BME280;27372;42.658;23.256;2023-05-09T14:35:04;94036.56;;;13.28;77.29